首页
METAR-TAF:

METAR-TAF

机场 :

Goldsboro, 北卡罗来纳州, 美国

纬度: 35-27-38N, 经度: 077-57-54W, 海拔: 40米

当前天气观测

该预报发布于12分钟前的09:45 UTC
风速5节,风向
温度 24°C
湿度 100%
气压 1019 hPa
能見度: 11.3公里
散云层高于6500英尺
阴天层高于9500英尺

METAR: KGWW 260945Z AUTO 17005KT 7SM SCT065 OVC095 24/24 A3008 RMK AO2 T02350235

时间: 05:57 (09:57 UTC)


TAF: 丢失

超过4000个机场的气象观测和天气预报(METAR&TAF报告)。

可查询的气象台以黄色和红色小点在地图上表示。

将鼠标移到小点上方,可查看气象台名称。

然后点击查看天气观测和预报。

如需切换地图:点击带黑十字的绿色按钮放大地图;点击带横线的绿色按钮缩小地图;或者点击绿色箭头查看邻近地区的地图。


METAR-TAF: